Time;durP1;ratioP1;P1;durP2;ratioP2;P2;SDS_P1;SDS_P2;PMS_P1;PMS_P2;Temp;Humidity;BMP_temperature;BMP_pressure;BME280_temperature;BME280_humidity;BME280_pressure;Samples;Min_cycle;Max_cycle;Signal;HPM_P1;HPM_P2
2023/01/29 00:00:32;;;;;;;26.10;17.53;;;2.40;99.90;;;;;;4991807;28;20720;-80
2023/01/29 00:02:59;;;;;;;25.90;17.23;;;2.40;99.90;;;;;;4993591;28;20308;-79
2023/01/29 00:05:27;;;;;;;24.57;16.77;;;2.40;99.90;;;;;;4998467;28;20980;-80
2023/01/29 00:07:55;;;;;;;37.07;17.67;;;2.40;99.90;;;;;;4995097;28;20255;-80
2023/01/29 00:10:25;;;;;;;27.40;17.83;;;2.40;99.90;;;;;;4995662;28;20244;-80
2023/01/29 00:12:54;;;;;;;32.23;16.97;;;2.40;99.90;;;;;;4999792;28;20325;-79
2023/01/29 00:15:21;;;;;;;24.00;16.40;;;2.40;99.90;;;;;;4998945;28;20236;-80
2023/01/29 00:17:48;;;;;;;27.30;16.00;;;2.40;99.90;;;;;;5000373;28;20236;-80
2023/01/29 00:20:17;;;;;;;28.37;16.83;;;2.40;99.90;;;;;;4996856;28;20241;-80
2023/01/29 00:22:45;;;;;;;25.67;15.80;;;2.40;99.90;;;;;;5000811;28;20233;-80
2023/01/29 00:25:11;;;;;;;25.93;15.97;;;2.40;99.90;;;;;;4997450;28;20245;-79
2023/01/29 00:27:38;;;;;;;27.63;15.90;;;2.50;99.90;;;;;;4999329;28;20248;-80
2023/01/29 00:30:11;;;;;;;22.17;15.57;;;2.50;99.90;;;;;;4998763;28;20256;-81
2023/01/29 00:32:39;;;;;;;31.03;16.07;;;2.40;99.90;;;;;;4987266;28;20221;-81
2023/01/29 00:35:07;;;;;;;24.20;15.17;;;2.40;99.90;;;;;;4988950;28;20222;-80
2023/01/29 00:37:35;;;;;;;30.93;15.07;;;2.50;99.90;;;;;;4993645;28;20825;-81
2023/01/29 00:40:03;;;;;;;21.83;15.00;;;2.40;99.90;;;;;;4998060;28;20518;-81
2023/01/29 00:45:19;;;;;;;21.93;14.77;;;2.40;99.90;;;;;;4995495;28;20235;-81
2023/01/29 00:47:45;;;;;;;21.77;14.87;;;2.50;99.90;;;;;;4993002;28;20737;-81
2023/01/29 00:50:12;;;;;;;21.87;15.43;;;2.50;99.90;;;;;;4999138;28;20946;-81
2023/01/29 00:52:40;;;;;;;31.57;15.10;;;2.50;99.90;;;;;;4996054;28;20240;-81
2023/01/29 00:55:10;;;;;;;23.57;15.27;;;2.50;99.90;;;;;;4993001;28;20251;-81
2023/01/29 00:57:38;;;;;;;24.17;15.00;;;2.50;99.90;;;;;;4996092;28;20238;-80
2023/01/29 01:00:08;;;;;;;45.97;14.87;;;2.50;99.90;;;;;;4994843;28;20217;-81
2023/01/29 01:05:19;;;;;;;22.03;13.73;;;2.60;99.90;;;;;;4998147;28;20228;-81
2023/01/29 01:07:46;;;;;;;33.73;13.80;;;2.50;99.90;;;;;;5001356;28;20217;-81
2023/01/29 01:10:19;;;;;;;20.23;13.87;;;2.60;99.90;;;;;;4998700;28;20255;-81
2023/01/29 01:12:46;;;;;;;22.30;13.87;;;2.60;99.90;;;;;;4994555;28;20792;-81
2023/01/29 01:15:13;;;;;;;24.53;12.60;;;2.60;99.90;;;;;;5001867;28;20231;-82
2023/01/29 01:17:40;;;;;;;21.57;12.83;;;2.60;99.90;;;;;;5002115;28;20320;-82
2023/01/29 01:20:09;;;;;;;19.80;12.93;;;2.60;99.90;;;;;;4998792;28;20229;-82
2023/01/29 01:22:37;;;;;;;20.73;13.47;;;2.60;99.90;;;;;;5000039;28;20238;-82
2023/01/29 01:25:04;;;;;;;20.60;13.00;;;2.60;99.90;;;;;;4995260;28;20229;-82
2023/01/29 01:27:33;;;;;;;19.83;13.03;;;2.60;99.90;;;;;;5002458;28;21156;-81
2023/01/29 01:30:00;;;;;;;21.13;12.63;;;2.60;99.90;;;;;;5000401;28;20333;-82
2023/01/29 01:32:27;;;;;;;20.10;12.70;;;2.60;99.90;;;;;;5002820;28;20308;-82
2023/01/29 01:34:54;;;;;;;20.70;12.63;;;2.60;99.90;;;;;;4999443;28;20228;-82
2023/01/29 01:37:23;;;;;;;23.20;14.20;;;2.60;99.90;;;;;;4999254;28;20306;-81
2023/01/29 01:39:50;;;;;;;22.93;13.17;;;2.60;99.90;;;;;;5015172;28;20926;-81
2023/01/29 01:42:17;;;;;;;21.60;12.90;;;2.60;99.90;;;;;;4998457;28;20787;-81
2023/01/29 01:45:03;;;;;;;19.47;13.10;;;2.60;99.90;;;;;;4999926;28;20217;-81
2023/01/29 01:47:38;;;;;;;20.40;12.83;;;2.70;99.90;;;;;;4998939;28;20232;-81
2023/01/29 01:50:09;;;;;;;20.30;13.30;;;2.70;99.90;;;;;;4995383;28;20229;-82
2023/01/29 01:52:41;;;;;;;20.37;12.03;;;2.70;99.90;;;;;;4993379;28;20234;-81
2023/01/29 01:55:12;;;;;;;18.63;12.47;;;2.70;99.90;;;;;;4993754;28;20778;-81
2023/01/29 01:57:41;;;;;;;21.43;12.70;;;2.70;99.90;;;;;;4997771;28;20228;-80
2023/01/29 02:00:14;;;;;;;20.47;12.10;;;2.70;99.90;;;;;;4988006;28;20235;-80
2023/01/29 02:11:09;;;;;;;21.03;13.50;;;2.70;99.90;;;;;;4995536;28;20230;-80
2023/01/29 02:13:36;;;;;;;19.77;12.50;;;2.80;99.90;;;;;;4998061;28;20217;-80
2023/01/29 02:16:05;;;;;;;21.20;13.10;;;2.70;99.90;;;;;;4997634;28;20577;-80
2023/01/29 02:18:36;;;;;;;17.93;11.93;;;2.70;99.90;;;;;;4999602;28;20350;-81
2023/01/29 02:21:23;;;;;;;24.13;12.37;;;2.70;99.90;;;;;;4990938;28;20790;-80
2023/01/29 02:24:21;;;;;;;19.17;12.03;;;2.70;99.90;;;;;;4999896;28;20798;-80
2023/01/29 02:26:59;;;;;;;20.43;11.93;;;2.80;99.90;;;;;;4998635;28;20236;-80
2023/01/29 02:29:38;;;;;;;17.30;11.00;;;2.80;99.90;;;;;;5003263;28;20253;-80
2023/01/29 02:32:16;;;;;;;19.47;12.17;;;2.80;99.90;;;;;;4996373;28;20321;-79
2023/01/29 02:37:39;;;;;;;18.37;11.70;;;2.80;99.90;;;;;;4999058;28;20690;-80
2023/01/29 02:40:13;;;;;;;20.63;12.20;;;2.80;99.90;;;;;;4992143;28;20225;-81
2023/01/29 02:42:51;;;;;;;23.23;11.93;;;2.80;99.90;;;;;;4999804;28;20782;-80
2023/01/29 02:45:24;;;;;;;19.13;12.03;;;2.80;99.90;;;;;;5015042;28;20233;-79
2023/01/29 02:47:57;;;;;;;16.67;12.20;;;2.80;99.90;;;;;;4996332;28;20225;-80
2023/01/29 02:50:32;;;;;;;20.43;12.93;;;2.80;99.90;;;;;;4993827;28;20223;-81
2023/01/29 02:53:04;;;;;;;18.93;11.63;;;2.80;99.90;;;;;;4999926;28;20217;-80
2023/01/29 02:55:36;;;;;;;18.47;11.80;;;2.80;99.90;;;;;;4995112;28;20930;-80
2023/01/29 02:58:09;;;;;;;18.60;11.83;;;2.80;99.90;;;;;;4996945;28;20296;-80
2023/01/29 03:00:42;;;;;;;18.77;12.30;;;2.80;99.90;;;;;;4991380;28;20219;-80
2023/01/29 03:03:16;;;;;;;19.30;12.60;;;2.80;99.90;;;;;;4995586;28;20221;-80
2023/01/29 03:05:52;;;;;;;20.80;13.07;;;2.80;99.90;;;;;;4995537;28;20733;-80
2023/01/29 03:08:35;;;;;;;19.30;12.33;;;2.80;99.90;;;;;;4994292;28;20684;-81
2023/01/29 03:11:05;;;;;;;18.17;11.63;;;2.80;99.90;;;;;;4981844;28;20233;-81
2023/01/29 03:13:40;;;;;;;17.60;12.27;;;2.80;99.90;;;;;;4987473;28;20229;-81
2023/01/29 03:16:14;;;;;;;19.70;12.27;;;2.80;99.90;;;;;;4997726;28;20220;-82
2023/01/29 03:18:49;;;;;;;20.10;12.47;;;2.80;99.90;;;;;;4995209;28;20214;-82
2023/01/29 03:33:02;;;;;;;18.00;11.20;;;2.80;99.90;;;;;;4989799;28;20246;-81
2023/01/29 03:35:37;;;;;;;17.13;11.53;;;2.80;99.90;;;;;;4994597;28;20222;-80
2023/01/29 03:38:08;;;;;;;16.93;11.73;;;2.80;99.90;;;;;;4998357;28;20225;-81
2023/01/29 03:40:41;;;;;;;16.83;11.07;;;2.80;99.90;;;;;;4981305;28;20241;-81
2023/01/29 03:43:14;;;;;;;16.30;12.27;;;2.80;99.90;;;;;;4982038;28;20227;-81
2023/01/29 03:45:56;;;;;;;19.50;11.90;;;2.90;99.90;;;;;;4996123;28;20578;-81
2023/01/29 03:48:33;;;;;;;20.33;12.23;;;2.80;99.90;;;;;;4994457;28;20246;-81
2023/01/29 03:51:07;;;;;;;15.90;11.17;;;2.90;99.90;;;;;;4994065;28;20288;-80
2023/01/29 03:53:43;;;;;;;20.83;12.40;;;2.80;99.90;;;;;;5014560;28;20324;-81
2023/01/29 03:56:21;;;;;;;16.40;11.63;;;2.80;99.90;;;;;;5002359;28;20231;-80
2023/01/29 03:58:55;;;;;;;15.93;11.40;;;2.80;99.90;;;;;;4999194;28;20221;-81
2023/01/29 04:01:32;;;;;;;17.60;11.63;;;2.90;99.90;;;;;;4996506;28;20316;-81
2023/01/29 04:04:09;;;;;;;19.03;11.90;;;2.80;99.90;;;;;;4992372;28;20229;-81
2023/01/29 04:06:41;;;;;;;15.43;10.70;;;2.90;99.90;;;;;;4997149;28;20225;-81
2023/01/29 04:09:13;;;;;;;17.33;11.37;;;2.90;99.90;;;;;;4995701;28;20312;-81
2023/01/29 04:11:47;;;;;;;15.77;10.77;;;2.90;99.90;;;;;;4997703;28;20275;-81
2023/01/29 04:14:15;;;;;;;15.20;10.83;;;2.90;99.90;;;;;;4995429;28;20228;-79
2023/01/29 04:16:47;;;;;;;18.37;11.13;;;2.90;99.90;;;;;;4996343;28;20703;-80
2023/01/29 04:19:20;;;;;;;17.13;10.43;;;2.90;99.90;;;;;;4995216;28;20223;-80
2023/01/29 04:21:52;;;;;;;15.97;10.17;;;2.90;99.90;;;;;;4992051;28;20599;-79
2023/01/29 04:24:19;;;;;;;14.73;10.43;;;2.90;99.90;;;;;;5014038;28;20248;-80
2023/01/29 04:26:57;;;;;;;17.40;9.83;;;2.90;99.90;;;;;;4989610;28;20275;-80
2023/01/29 04:29:41;;;;;;;16.43;9.70;;;2.90;99.90;;;;;;4989808;28;20625;-80
2023/01/29 04:32:16;;;;;;;14.47;9.60;;;2.90;99.90;;;;;;4999279;28;20216;-81
2023/01/29 04:34:54;;;;;;;15.80;9.40;;;2.90;99.90;;;;;;4995172;28;20238;-84
2023/01/29 04:37:33;;;;;;;18.53;10.23;;;2.90;99.90;;;;;;4994139;28;20245;-80
2023/01/29 04:40:06;;;;;;;13.47;9.57;;;3.00;99.90;;;;;;4997920;28;20240;-79
2023/01/29 04:42:40;;;;;;;16.00;10.27;;;2.90;99.90;;;;;;4989028;28;22256;-80
2023/01/29 04:45:15;;;;;;;15.77;9.77;;;2.90;99.90;;;;;;4995188;28;20724;-80
2023/01/29 04:47:50;;;;;;;16.20;9.87;;;2.90;99.90;;;;;;4999667;28;21037;-81
2023/01/29 04:50:25;;;;;;;13.53;9.50;;;2.90;99.90;;;;;;4989953;28;20225;-80
2023/01/29 04:53:00;;;;;;;15.07;9.93;;;2.90;99.90;;;;;;4994887;28;20366;-80
2023/01/29 04:55:35;;;;;;;16.73;10.93;;;2.90;99.90;;;;;;4995677;28;20240;-79
2023/01/29 04:58:07;;;;;;;15.93;10.57;;;2.80;99.90;;;;;;4990035;28;20647;-80
2023/01/29 05:00:38;;;;;;;15.40;9.97;;;2.90;99.90;;;;;;4990672;28;20264;-80
2023/01/29 05:03:08;;;;;;;22.90;11.73;;;2.90;99.90;;;;;;4984933;28;20220;-79
2023/01/29 05:05:36;;;;;;;15.97;10.93;;;2.90;99.90;;;;;;4996522;28;20306;-81
2023/01/29 05:08:07;;;;;;;15.30;11.83;;;2.80;99.90;;;;;;4998623;28;20230;-82
2023/01/29 05:10:35;;;;;;;22.00;11.50;;;2.90;99.90;;;;;;4997916;28;20225;-80
2023/01/29 05:13:06;;;;;;;21.47;10.57;;;2.80;99.90;;;;;;4992141;28;20330;-79
2023/01/29 05:15:37;;;;;;;16.47;11.67;;;2.80;99.90;;;;;;4997284;28;20353;-80
2023/01/29 05:18:07;;;;;;;17.47;11.03;;;2.80;99.90;;;;;;5012481;28;20313;-80
2023/01/29 05:20:39;;;;;;;17.80;11.03;;;2.80;99.90;;;;;;4994306;28;20907;-79
2023/01/29 05:23:10;;;;;;;19.23;10.63;;;2.80;99.90;;;;;;4985177;28;20222;-80
2023/01/29 05:25:37;;;;;;;54.10;13.00;;;2.80;99.90;;;;;;4994616;28;20241;-80
2023/01/29 05:28:03;;;;;;;20.70;12.27;;;2.70;99.90;;;;;;4996757;28;20352;-80
2023/01/29 05:30:31;;;;;;;19.07;11.30;;;2.70;99.90;;;;;;4988744;28;20878;-80
2023/01/29 05:32:57;;;;;;;17.70;10.37;;;2.70;99.90;;;;;;4990568;28;20286;-80
2023/01/29 05:35:24;;;;;;;20.77;11.40;;;2.70;99.90;;;;;;4999762;28;21138;-80
2023/01/29 05:37:52;;;;;;;18.80;11.67;;;2.80;99.90;;;;;;4999106;28;20309;-80
2023/01/29 05:40:19;;;;;;;18.30;11.53;;;2.70;99.90;;;;;;4993992;28;20331;-81
2023/01/29 05:42:46;;;;;;;21.83;12.27;;;2.60;99.90;;;;;;4993690;28;20882;-81
2023/01/29 05:45:14;;;;;;;19.03;12.20;;;2.70;99.90;;;;;;4998589;28;20305;-80
2023/01/29 05:47:41;;;;;;;19.33;11.70;;;2.60;99.90;;;;;;4992542;28;20230;-81
2023/01/29 05:50:08;;;;;;;21.27;11.77;;;2.70;99.90;;;;;;4999886;28;20222;-81
2023/01/29 05:52:35;;;;;;;19.77;12.47;;;2.60;99.90;;;;;;4999299;28;20224;-81
2023/01/29 05:55:04;;;;;;;52.77;13.67;;;2.60;99.90;;;;;;5001034;28;20667;-81
2023/01/29 05:57:31;;;;;;;17.70;11.80;;;2.60;99.90;;;;;;4999312;28;20225;-80
2023/01/29 05:59:58;;;;;;;18.33;12.30;;;2.60;99.90;;;;;;5001914;28;20225;-81
2023/01/29 06:02:33;;;;;;;21.47;12.57;;;2.60;99.90;;;;;;5002548;28;20611;-82
2023/01/29 06:05:00;;;;;;;19.17;11.90;;;2.60;99.90;;;;;;4998871;28;20229;-81
2023/01/29 06:07:30;;;;;;;24.60;12.80;;;2.70;99.90;;;;;;4992545;28;20232;-81
2023/01/29 06:10:00;;;;;;;20.93;12.50;;;2.50;99.90;;;;;;5000008;28;20261;-80
2023/01/29 06:12:29;;;;;;;15.73;10.80;;;2.60;99.90;;;;;;5000659;28;20237;-82
2023/01/29 06:14:55;;;;;;;21.73;12.53;;;2.60;99.90;;;;;;5001278;28;20296;-81
2023/01/29 06:17:22;;;;;;;18.23;11.60;;;2.50;99.90;;;;;;5000592;28;20222;-82
2023/01/29 06:19:49;;;;;;;18.33;12.00;;;2.50;99.90;;;;;;4999690;28;20217;-82
2023/01/29 06:22:16;;;;;;;18.37;12.60;;;2.50;99.90;;;;;;5002273;28;20218;-81
2023/01/29 06:24:43;;;;;;;21.40;12.43;;;2.50;99.90;;;;;;4999442;28;20689;-81
2023/01/29 06:27:10;;;;;;;18.60;12.40;;;2.50;99.90;;;;;;5002472;28;20294;-83
2023/01/29 06:29:38;;;;;;;16.83;12.23;;;2.50;99.90;;;;;;4999275;28;20280;-82
2023/01/29 06:32:05;;;;;;;19.83;12.77;;;2.50;99.90;;;;;;4992023;28;20641;-82
2023/01/29 06:34:32;;;;;;;18.13;11.80;;;2.50;99.90;;;;;;4999126;28;20232;-80
2023/01/29 06:36:58;;;;;;;16.60;11.83;;;2.50;99.90;;;;;;5000630;28;20218;-83
2023/01/29 06:39:25;;;;;;;19.57;11.90;;;2.50;99.90;;;;;;4997710;28;21149;-81
2023/01/29 06:41:52;;;;;;;17.93;11.67;;;2.50;99.90;;;;;;5006624;28;20433;-81
2023/01/29 06:44:19;;;;;;;19.13;12.47;;;2.40;99.90;;;;;;4988158;28;20706;-81
2023/01/29 06:46:47;;;;;;;17.63;12.10;;;2.50;99.90;;;;;;4995492;28;20891;-81
2023/01/29 06:49:14;;;;;;;19.60;11.20;;;2.50;99.90;;;;;;5002879;28;20228;-81
2023/01/29 06:51:43;;;;;;;18.90;11.47;;;2.40;99.90;;;;;;5002547;28;20317;-81
2023/01/29 06:54:11;;;;;;;19.50;12.10;;;2.40;99.90;;;;;;5002057;28;20288;-81
2023/01/29 06:56:38;;;;;;;18.80;11.57;;;2.40;99.90;;;;;;4998964;28;20308;-81
2023/01/29 06:59:07;;;;;;;18.60;11.77;;;2.40;99.90;;;;;;4999177;28;20321;-81
2023/01/29 07:01:34;;;;;;;17.90;11.87;;;2.30;99.90;;;;;;4994679;28;20237;-81
2023/01/29 07:04:02;;;;;;;18.90;12.27;;;2.30;99.90;;;;;;4991310;28;20235;-81
2023/01/29 07:06:30;;;;;;;22.03;12.83;;;2.30;99.90;;;;;;4999545;28;20226;-81
2023/01/29 07:08:56;;;;;;;19.13;12.23;;;2.30;99.90;;;;;;4998865;28;20221;-81
2023/01/29 07:11:23;;;;;;;18.17;12.03;;;2.30;99.90;;;;;;5004433;28;20230;-81
2023/01/29 07:13:50;;;;;;;18.60;12.50;;;2.30;99.90;;;;;;5000520;28;20223;-81
2023/01/29 07:16:17;;;;;;;23.23;12.70;;;2.30;99.90;;;;;;4994967;28;20825;-81
2023/01/29 07:18:44;;;;;;;21.83;13.23;;;2.20;99.90;;;;;;5008589;28;20225;-81
2023/01/29 07:21:12;;;;;;;19.90;13.10;;;2.20;99.90;;;;;;5007106;28;20338;-81
2023/01/29 07:23:39;;;;;;;20.07;13.00;;;2.30;99.90;;;;;;5004062;28;20343;-82
2023/01/29 07:26:06;;;;;;;20.20;11.80;;;2.30;99.90;;;;;;5000248;28;20756;-82
2023/01/29 07:28:36;;;;;;;19.40;11.80;;;2.30;99.90;;;;;;5000930;28;20227;-82
2023/01/29 07:31:04;;;;;;;18.67;12.03;;;2.30;99.90;;;;;;5004358;28;20877;-83
2023/01/29 07:33:31;;;;;;;17.17;11.90;;;2.30;99.90;;;;;;4998398;28;20300;-83
2023/01/29 07:35:58;;;;;;;18.00;11.93;;;2.30;99.90;;;;;;4999901;28;20221;-82
2023/01/29 07:38:26;;;;;;;19.60;12.33;;;2.30;99.90;;;;;;4999898;28;20231;-82
2023/01/29 07:40:55;;;;;;;17.43;12.00;;;2.30;99.90;;;;;;4997236;28;20662;-82
2023/01/29 07:43:23;;;;;;;20.67;13.00;;;2.40;99.90;;;;;;4996476;28;20234;-82
2023/01/29 07:45:50;;;;;;;18.67;12.13;;;2.30;99.90;;;;;;5001593;28;20228;-83
2023/01/29 07:48:17;;;;;;;20.20;11.87;;;2.40;99.90;;;;;;4997530;28;20249;-84
2023/01/29 07:50:43;;;;;;;20.43;12.47;;;2.30;99.90;;;;;;5001871;28;20300;-82
2023/01/29 07:53:13;;;;;;;20.87;12.97;;;2.40;99.90;;;;;;5002048;28;20220;-83
2023/01/29 07:55:44;;;;;;;19.57;12.33;;;2.40;99.90;;;;;;4999773;28;20220;-82
2023/01/29 07:58:11;;;;;;;18.27;12.40;;;2.30;99.90;;;;;;4999335;28;20217;-82
2023/01/29 08:00:39;;;;;;;18.20;12.10;;;2.40;99.90;;;;;;5003411;28;20228;-83
2023/01/29 08:03:07;;;;;;;21.07;12.83;;;2.30;99.90;;;;;;5005287;28;20221;-83
2023/01/29 08:05:34;;;;;;;17.93;11.67;;;2.30;99.90;;;;;;5005006;28;20737;-80
2023/01/29 08:08:03;;;;;;;20.33;13.13;;;2.40;99.90;;;;;;5002233;28;20222;-80
2023/01/29 08:10:29;;;;;;;22.03;14.50;;;2.40;99.90;;;;;;4999574;28;20315;-81
2023/01/29 08:12:59;;;;;;;21.73;14.70;;;2.30;99.90;;;;;;5004047;28;20223;-81
2023/01/29 08:15:27;;;;;;;21.77;13.83;;;2.30;99.90;;;;;;5001962;28;20230;-81
2023/01/29 08:17:54;;;;;;;31.20;15.27;;;2.30;99.90;;;;;;5019690;28;20310;-81
2023/01/29 08:20:22;;;;;;;21.00;14.50;;;2.40;99.90;;;;;;4998905;28;20239;-81
2023/01/29 08:22:48;;;;;;;30.73;14.77;;;2.40;99.90;;;;;;5003018;28;20710;-81
2023/01/29 08:25:16;;;;;;;41.40;17.20;;;2.40;99.90;;;;;;5007008;28;20228;-82
2023/01/29 08:27:42;;;;;;;26.87;15.97;;;2.40;99.90;;;;;;5002309;28;20219;-82
2023/01/29 08:30:12;;;;;;;28.20;16.37;;;2.40;99.90;;;;;;5017802;28;20215;-83
2023/01/29 08:32:39;;;;;;;26.87;16.13;;;2.50;99.90;;;;;;4999485;28;20796;-82
2023/01/29 08:35:07;;;;;;;30.73;16.20;;;2.50;99.90;;;;;;4994056;28;20224;-81
2023/01/29 08:37:34;;;;;;;26.60;16.10;;;2.60;99.90;;;;;;4993500;28;20229;-81
2023/01/29 08:40:01;;;;;;;26.17;17.50;;;2.60;99.90;;;;;;5001078;28;20225;-81
2023/01/29 08:42:27;;;;;;;26.47;17.77;;;2.60;99.90;;;;;;4990902;28;20263;-82
2023/01/29 08:44:54;;;;;;;24.73;17.27;;;2.60;99.90;;;;;;4988251;28;20268;-81
2023/01/29 08:47:24;;;;;;;27.80;18.73;;;2.70;99.90;;;;;;4995979;28;20357;-81
2023/01/29 08:49:51;;;;;;;29.10;19.30;;;2.70;99.90;;;;;;4998302;28;20779;-81
2023/01/29 08:52:17;;;;;;;31.70;19.93;;;2.70;99.90;;;;;;5015607;28;20288;-81
2023/01/29 08:54:44;;;;;;;32.47;20.40;;;2.70;99.90;;;;;;4998931;28;20232;-82
2023/01/29 08:57:13;;;;;;;28.77;19.80;;;2.70;99.90;;;;;;5000152;28;20258;-81
2023/01/29 08:59:39;;;;;;;31.80;20.93;;;2.80;99.90;;;;;;4999039;28;20666;-81
2023/01/29 09:02:06;;;;;;;31.97;21.77;;;2.80;99.90;;;;;;5004755;28;20229;-81
2023/01/29 09:04:34;;;;;;;30.97;21.47;;;2.80;99.90;;;;;;4998552;28;20236;-82
2023/01/29 09:07:01;;;;;;;35.67;23.17;;;2.80;99.90;;;;;;4997299;28;20300;-80
2023/01/29 09:09:27;;;;;;;37.77;23.00;;;2.80;99.90;;;;;;4996909;28;20753;-81
2023/01/29 09:11:54;;;;;;;34.10;22.63;;;2.80;99.90;;;;;;4998210;28;20220;-81
2023/01/29 09:14:21;;;;;;;35.10;22.43;;;2.80;99.90;;;;;;4998547;28;20224;-81
2023/01/29 09:16:47;;;;;;;39.20;23.33;;;2.90;99.90;;;;;;5001124;28;20225;-81
2023/01/29 09:19:18;;;;;;;38.07;24.07;;;2.80;99.90;;;;;;4996960;28;20240;-81
2023/01/29 09:21:48;;;;;;;41.90;24.43;;;2.90;99.90;;;;;;4997918;28;20706;-81
2023/01/29 09:24:15;;;;;;;40.60;25.53;;;2.90;99.90;;;;;;4990190;28;20230;-81
2023/01/29 09:26:41;;;;;;;42.67;26.33;;;2.90;99.90;;;;;;4996279;28;20230;-81
2023/01/29 09:29:10;;;;;;;43.47;27.27;;;2.90;99.90;;;;;;5001962;28;20235;-81
2023/01/29 09:31:36;;;;;;;44.63;26.93;;;3.00;99.90;;;;;;4996639;28;20217;-81
2023/01/29 09:34:03;;;;;;;38.27;24.53;;;3.00;99.90;;;;;;4989174;28;20225;-81
2023/01/29 09:36:30;;;;;;;45.37;27.50;;;3.00;99.90;;;;;;4998401;28;20236;-81
2023/01/29 09:38:58;;;;;;;41.03;26.53;;;3.00;99.90;;;;;;5006374;28;20272;-81
2023/01/29 09:41:37;;;;;;;43.60;27.27;;;3.00;99.90;;;;;;4998469;28;20221;-81
2023/01/29 09:44:11;;;;;;;42.37;27.40;;;3.00;99.90;;;;;;5003276;28;20223;-81
2023/01/29 09:46:40;;;;;;;41.87;27.77;;;3.00;99.90;;;;;;4995908;28;20231;-80
2023/01/29 09:49:13;;;;;;;41.87;28.07;;;3.00;99.90;;;;;;5003624;28;20234;-81
2023/01/29 09:51:48;;;;;;;42.73;27.20;;;3.00;99.90;;;;;;5000388;28;20228;-81
2023/01/29 09:54:25;;;;;;;40.73;26.73;;;3.00;99.90;;;;;;5009149;28;20226;-81
2023/01/29 09:56:55;;;;;;;44.27;26.83;;;3.00;99.90;;;;;;5002717;28;20224;-81
2023/01/29 09:59:25;;;;;;;43.27;27.33;;;3.00;99.90;;;;;;4997363;28;20234;-81
2023/01/29 10:02:02;;;;;;;41.40;26.33;;;3.00;99.90;;;;;;5006128;28;20867;-81
2023/01/29 10:04:52;;;;;;;41.27;27.23;;;3.00;99.90;;;;;;5004204;28;20664;-81
2023/01/29 10:07:47;;;;;;;43.27;27.60;;;3.10;99.90;;;;;;5010483;28;20908;-81
2023/01/29 10:10:26;;;;;;;42.33;26.80;;;3.10;99.90;;;;;;4990800;28;20770;-81
2023/01/29 10:13:06;;;;;;;40.27;27.60;;;3.10;99.90;;;;;;5002339;28;20228;-81
2023/01/29 10:15:42;;;;;;;49.60;29.30;;;3.10;99.90;;;;;;4992547;28;20233;-81
2023/01/29 10:18:45;;;;;;;41.37;27.37;;;3.20;99.90;;;;;;4998022;28;20943;-80
2023/01/29 10:21:28;;;;;;;45.87;28.63;;;3.20;99.90;;;;;;4999029;28;20289;-81
2023/01/29 10:24:01;;;;;;;42.23;27.43;;;3.20;99.90;;;;;;4990975;28;20932;-81
2023/01/29 10:26:29;;;;;;;41.30;27.03;;;3.20;99.90;;;;;;5002318;28;20898;-81
2023/01/29 10:28:58;;;;;;;41.93;27.97;;;3.20;99.90;;;;;;4998911;28;20236;-81
2023/01/29 10:31:31;;;;;;;41.13;27.40;;;3.20;99.90;;;;;;4992287;28;20325;-81
2023/01/29 10:34:03;;;;;;;40.90;27.40;;;3.20;99.90;;;;;;4989919;28;20221;-81
2023/01/29 10:36:36;;;;;;;39.97;27.30;;;3.20;99.90;;;;;;4980528;28;20226;-81
2023/01/29 10:39:02;;;;;;;43.60;28.73;;;3.20;99.90;;;;;;4999445;28;20788;-81
2023/01/29 10:41:48;;;;;;;45.93;28.03;;;3.30;99.90;;;;;;4985907;28;20924;-81
2023/01/29 10:44:29;;;;;;;44.13;28.93;;;3.30;99.90;;;;;;4998447;28;20890;-81
2023/01/29 10:47:16;;;;;;;44.83;29.00;;;3.30;99.90;;;;;;4995058;28;20234;-81
2023/01/29 10:50:11;;;;;;;45.67;29.40;;;3.20;99.90;;;;;;4989364;28;20782;-81
2023/01/29 10:52:51;;;;;;;42.07;28.43;;;3.30;99.90;;;;;;5003727;28;20822;-80
2023/01/29 10:55:32;;;;;;;43.13;29.17;;;3.30;99.90;;;;;;5002589;28;20240;-81
2023/01/29 10:58:08;;;;;;;39.90;27.00;;;3.30;99.90;;;;;;4995805;28;20222;-81
2023/01/29 11:00:37;;;;;;;45.53;28.43;;;3.30;99.90;;;;;;4995625;28;20229;-81
2023/01/29 11:03:14;;;;;;;43.27;29.00;;;3.40;99.90;;;;;;4997318;28;20222;-81
2023/01/29 11:05:50;;;;;;;47.37;29.07;;;3.30;99.90;;;;;;5003053;28;20277;-81
2023/01/29 11:08:21;;;;;;;47.33;29.43;;;3.30;99.90;;;;;;5002361;28;20256;-81
2023/01/29 11:10:54;;;;;;;40.53;27.77;;;3.30;99.90;;;;;;4999887;28;20234;-81
2023/01/29 11:13:29;;;;;;;45.90;28.90;;;3.30;99.90;;;;;;4998081;28;20976;-81
2023/01/29 11:15:56;;;;;;;41.63;28.33;;;3.30;99.90;;;;;;5002894;28;20250;-81
2023/01/29 11:18:23;;;;;;;41.23;28.70;;;3.40;99.90;;;;;;5000782;28;21138;-80
2023/01/29 11:21:03;;;;;;;40.27;28.43;;;3.40;99.90;;;;;;5000455;28;20225;-81
2023/01/29 11:23:34;;;;;;;39.13;27.87;;;3.40;99.90;;;;;;5001306;28;20218;-81
2023/01/29 11:26:03;;;;;;;42.27;28.37;;;3.40;99.90;;;;;;5004076;28;20232;-81
2023/01/29 11:28:42;;;;;;;37.90;26.80;;;3.40;99.90;;;;;;5002371;28;20234;-81
2023/01/29 11:31:22;;;;;;;38.87;28.03;;;3.30;99.90;;;;;;4999732;28;20987;-80
2023/01/29 11:33:53;;;;;;;36.57;25.63;;;3.40;99.90;;;;;;5000918;28;20222;-81
2023/01/29 11:36:38;;;;;;;38.83;26.77;;;3.40;99.90;;;;;;5003500;28;20240;-81
2023/01/29 11:39:20;;;;;;;37.23;26.33;;;3.40;99.90;;;;;;4999548;28;20317;-80
2023/01/29 11:41:53;;;;;;;38.93;25.87;;;3.40;99.90;;;;;;4996205;28;20223;-81
2023/01/29 11:44:27;;;;;;;46.27;27.33;;;3.40;99.90;;;;;;5008574;28;20223;-81
2023/01/29 11:46:55;;;;;;;46.20;26.33;;;3.40;99.90;;;;;;5011836;28;20210;-81
2023/01/29 11:49:31;;;;;;;39.07;25.10;;;3.40;99.90;;;;;;5000052;28;20226;-80
2023/01/29 11:52:01;;;;;;;43.10;26.73;;;3.40;99.90;;;;;;5001047;28;20925;-81
2023/01/29 11:54:32;;;;;;;37.83;24.90;;;3.40;99.90;;;;;;4996997;28;20230;-81
2023/01/29 11:56:59;;;;;;;36.70;24.10;;;3.50;99.90;;;;;;4998500;28;20217;-80
2023/01/29 11:59:39;;;;;;;32.47;23.87;;;3.50;99.90;;;;;;4997574;28;20972;-81
2023/01/29 12:02:25;;;;;;;31.97;23.10;;;3.60;99.90;;;;;;5011169;28;20225;-80
2023/01/29 12:04:53;;;;;;;35.67;24.77;;;3.70;99.90;;;;;;4999522;28;20325;-81
2023/01/29 12:07:20;;;;;;;35.07;25.33;;;3.60;99.90;;;;;;5003964;28;20698;-80
2023/01/29 12:09:54;;;;;;;33.00;22.87;;;3.70;99.90;;;;;;5005554;28;20238;-81
2023/01/29 12:12:29;;;;;;;33.87;24.30;;;3.70;99.90;;;;;;4985772;28;20235;-81
2023/01/29 12:15:14;;;;;;;30.33;21.97;;;3.70;99.90;;;;;;5001021;28;20222;-80
2023/01/29 12:17:45;;;;;;;33.00;23.43;;;3.70;99.90;;;;;;4998612;28;20315;-81
2023/01/29 12:20:18;;;;;;;35.00;24.07;;;3.70;99.90;;;;;;4998105;28;20206;-80
2023/01/29 12:22:50;;;;;;;33.87;23.27;;;3.70;99.90;;;;;;4996438;28;20229;-81
2023/01/29 12:25:25;;;;;;;33.53;23.30;;;3.70;99.90;;;;;;4998520;28;20590;-81
2023/01/29 12:27:59;;;;;;;34.23;22.40;;;3.70;99.90;;;;;;4998565;28;20695;-81
2023/01/29 12:30:31;;;;;;;33.30;23.47;;;3.70;99.90;;;;;;4997247;28;20727;-81
2023/01/29 12:33:04;;;;;;;31.27;23.20;;;3.70;99.90;;;;;;5000256;28;20995;-81
2023/01/29 12:35:37;;;;;;;30.77;22.80;;;3.70;99.90;;;;;;4994540;28;20237;-81
2023/01/29 12:38:10;;;;;;;31.60;22.40;;;3.80;99.90;;;;;;5012362;28;20322;-81
2023/01/29 12:40:42;;;;;;;32.93;22.57;;;3.70;99.90;;;;;;4999932;28;20310;-81
2023/01/29 12:43:17;;;;;;;31.23;22.47;;;3.70;99.90;;;;;;4992551;28;20231;-81
2023/01/29 12:45:52;;;;;;;32.53;23.30;;;3.70;99.90;;;;;;4999342;28;20698;-81
2023/01/29 12:48:23;;;;;;;36.20;23.87;;;3.70;99.90;;;;;;4994137;28;20232;-81
2023/01/29 12:50:51;;;;;;;31.87;22.97;;;3.70;99.90;;;;;;5002166;28;20225;-81
2023/01/29 12:53:26;;;;;;;36.53;22.77;;;3.70;99.90;;;;;;5011685;28;20374;-81
2023/01/29 12:55:56;;;;;;;32.23;23.03;;;3.70;99.90;;;;;;4998254;28;20229;-81
2023/01/29 12:58:30;;;;;;;31.07;22.20;;;3.70;99.90;;;;;;4998563;28;20694;-81
2023/01/29 13:01:04;;;;;;;32.93;22.00;;;3.70;99.90;;;;;;5006207;28;20754;-81
2023/01/29 13:03:37;;;;;;;33.17;22.23;;;3.70;99.90;;;;;;5002405;28;20244;-81
2023/01/29 13:06:10;;;;;;;32.10;23.13;;;3.70;99.90;;;;;;4990803;28;20247;-81
2023/01/29 13:08:41;;;;;;;30.03;22.83;;;3.70;99.90;;;;;;4994672;28;20225;-81
2023/01/29 13:11:14;;;;;;;31.37;23.10;;;3.60;99.90;;;;;;5001233;28;20225;-81
2023/01/29 13:13:51;;;;;;;31.67;22.33;;;3.70;99.90;;;;;;5006689;28;20363;-81
2023/01/29 13:16:22;;;;;;;36.47;23.43;;;3.70;99.90;;;;;;4996921;28;20222;-80
2023/01/29 13:18:53;;;;;;;30.53;21.63;;;3.70;99.90;;;;;;4995766;28;20233;-80
2023/01/29 13:21:23;;;;;;;30.53;21.40;;;3.70;99.90;;;;;;4997474;28;20903;-81
2023/01/29 13:23:55;;;;;;;30.70;21.63;;;3.70;99.90;;;;;;4994935;28;20755;-80
2023/01/29 13:26:25;;;;;;;30.03;22.13;;;3.70;99.90;;;;;;4999252;28;20280;-80